sensor_id;sensor_type;location;lat;lon;timestamp;pressure;altitude;pressure_sealevel;temperature;humidity
12897;BME280;6516;35.028;32.372;2023-01-19T00:01:30;101013.72;;;11.63;100.00
12897;BME280;6516;35.028;32.372;2023-01-19T00:03:57;101004.00;;;11.68;100.00
12897;BME280;6516;35.028;32.372;2023-01-19T00:06:25;101006.72;;;11.62;100.00
12897;BME280;6516;35.028;32.372;2023-01-19T00:08:53;101008.38;;;11.67;100.00
12897;BME280;6516;35.028;32.372;2023-01-19T00:11:21;101003.19;;;11.57;100.00
12897;BME280;6516;35.028;32.372;2023-01-19T00:13:49;101008.47;;;11.61;100.00
12897;BME280;6516;35.028;32.372;2023-01-19T00:16:19;101003.09;;;11.69;100.00
12897;BME280;6516;35.028;32.372;2023-01-19T00:18:49;101005.72;;;11.72;100.00
12897;BME280;6516;35.028;32.372;2023-01-19T00:21:18;100998.63;;;11.78;100.00
12897;BME280;6516;35.028;32.372;2023-01-19T00:23:47;101001.28;;;11.78;100.00
12897;BME280;6516;35.028;32.372;2023-01-19T00:26:17;101001.28;;;11.75;100.00
12897;BME280;6516;35.028;32.372;2023-01-19T00:28:46;101003.00;;;11.82;100.00
12897;BME280;6516;35.028;32.372;2023-01-19T00:31:15;100997.00;;;11.67;100.00
12897;BME280;6516;35.028;32.372;2023-01-19T00:33:46;100995.28;;;11.60;100.00
12897;BME280;6516;35.028;32.372;2023-01-19T00:36:16;100996.09;;;11.65;100.00
12897;BME280;6516;35.028;32.372;2023-01-19T00:38:43;100997.03;;;11.58;100.00
12897;BME280;6516;35.028;32.372;2023-01-19T00:41:11;101001.47;;;11.53;100.00
12897;BME280;6516;35.028;32.372;2023-01-19T00:43:39;101005.00;;;11.49;100.00
12897;BME280;6516;35.028;32.372;2023-01-19T00:46:06;101009.47;;;11.42;100.00
12897;BME280;6516;35.028;32.372;2023-01-19T00:48:34;101009.44;;;11.44;100.00
12897;BME280;6516;35.028;32.372;2023-01-19T00:51:03;101005.94;;;11.43;100.00
12897;BME280;6516;35.028;32.372;2023-01-19T00:53:31;101003.28;;;11.48;100.00
12897;BME280;6516;35.028;32.372;2023-01-19T00:55:59;101011.19;;;11.45;100.00
12897;BME280;6516;35.028;32.372;2023-01-19T00:58:27;101007.72;;;11.43;100.00
12897;BME280;6516;35.028;32.372;2023-01-19T01:00:55;101006.84;;;11.38;100.00
12897;BME280;6516;35.028;32.372;2023-01-19T01:03:27;101003.41;;;11.30;100.00
12897;BME280;6516;35.028;32.372;2023-01-19T01:05:56;101000.78;;;11.28;100.00
12897;BME280;6516;35.028;32.372;2023-01-19T01:08:25;100994.59;;;11.34;100.00
12897;BME280;6516;35.028;32.372;2023-01-19T01:10:53;101002.53;;;11.29;100.00
12897;BME280;6516;35.028;32.372;2023-01-19T01:13:22;101001.63;;;11.28;100.00
12897;BME280;6516;35.028;32.372;2023-01-19T01:15:51;100992.94;;;11.22;100.00
12897;BME280;6516;35.028;32.372;2023-01-19T01:18:19;101003.47;;;11.18;100.00
12897;BME280;6516;35.028;32.372;2023-01-19T01:20:47;100994.00;;;10.91;100.00
12897;BME280;6516;35.028;32.372;2023-01-19T01:23:16;101001.00;;;10.92;100.00
12897;BME280;6516;35.028;32.372;2023-01-19T01:25:49;101003.63;;;10.95;100.00
12897;BME280;6516;35.028;32.372;2023-01-19T01:28:16;101001.84;;;11.00;100.00
12897;BME280;6516;35.028;32.372;2023-01-19T01:30:44;100995.69;;;11.04;100.00
12897;BME280;6516;35.028;32.372;2023-01-19T01:33:12;100996.47;;;11.13;100.00
12897;BME280;6516;35.028;32.372;2023-01-19T01:35:40;100992.03;;;11.25;100.00
12897;BME280;6516;35.028;32.372;2023-01-19T01:38:08;100990.25;;;11.23;100.00
12897;BME280;6516;35.028;32.372;2023-01-19T01:40:38;100994.69;;;11.18;100.00
12897;BME280;6516;35.028;32.372;2023-01-19T01:43:10;100991.16;;;11.23;100.00
12897;BME280;6516;35.028;32.372;2023-01-19T01:45:39;100990.31;;;11.19;100.00
12897;BME280;6516;35.028;32.372;2023-01-19T01:48:10;100992.09;;;11.11;100.00
12897;BME280;6516;35.028;32.372;2023-01-19T01:50:43;100989.56;;;10.98;100.00
12897;BME280;6516;35.028;32.372;2023-01-19T01:53:28;100977.34;;;10.81;100.00
12897;BME280;6516;35.028;32.372;2023-01-19T01:55:58;100977.41;;;10.75;100.00
12897;BME280;6516;35.028;32.372;2023-01-19T01:58:29;100970.34;;;10.77;100.00
12897;BME280;6516;35.028;32.372;2023-01-19T02:00:57;100974.72;;;10.81;100.00
12897;BME280;6516;35.028;32.372;2023-01-19T02:03:42;100976.47;;;10.87;100.00
12897;BME280;6516;35.028;32.372;2023-01-19T02:06:11;100979.03;;;10.94;100.00
12897;BME280;6516;35.028;32.372;2023-01-19T02:08:44;100975.56;;;10.93;100.00
12897;BME280;6516;35.028;32.372;2023-01-19T02:11:32;100977.50;;;10.57;100.00
12897;BME280;6516;35.028;32.372;2023-01-19T02:14:19;100981.06;;;10.41;100.00
12897;BME280;6516;35.028;32.372;2023-01-19T02:16:47;100975.78;;;10.47;100.00
12897;BME280;6516;35.028;32.372;2023-01-19T02:19:16;100965.19;;;10.62;100.00
12897;BME280;6516;35.028;32.372;2023-01-19T02:21:53;100967.75;;;10.71;100.00
12897;BME280;6516;35.028;32.372;2023-01-19T02:24:24;100965.09;;;10.80;100.00
12897;BME280;6516;35.028;32.372;2023-01-19T02:26:55;100958.91;;;10.84;100.00
12897;BME280;6516;35.028;32.372;2023-01-19T02:29:25;100953.66;;;10.81;100.00
12897;BME280;6516;35.028;32.372;2023-01-19T02:31:54;100960.66;;;10.84;100.00
12897;BME280;6516;35.028;32.372;2023-01-19T02:34:24;100960.59;;;10.90;100.00
12897;BME280;6516;35.028;32.372;2023-01-19T02:36:54;100966.75;;;10.95;100.00
12897;BME280;6516;35.028;32.372;2023-01-19T02:39:28;100973.81;;;10.88;100.00
12897;BME280;6516;35.028;32.372;2023-01-19T02:42:02;100972.09;;;10.84;100.00
12897;BME280;6516;35.028;32.372;2023-01-19T02:44:32;100967.66;;;10.86;100.00
12897;BME280;6516;35.028;32.372;2023-01-19T02:47:03;100967.59;;;10.97;100.00
12897;BME280;6516;35.028;32.372;2023-01-19T02:49:31;100968.50;;;10.96;100.00
12897;BME280;6516;35.028;32.372;2023-01-19T02:51:59;100969.41;;;10.93;100.00
12897;BME280;6516;35.028;32.372;2023-01-19T02:54:35;100974.69;;;10.87;100.00
12897;BME280;6516;35.028;32.372;2023-01-19T02:57:23;100976.50;;;10.78;100.00
12897;BME280;6516;35.028;32.372;2023-01-19T03:00:06;100971.25;;;10.78;100.00
12897;BME280;6516;35.028;32.372;2023-01-19T03:02:47;100969.50;;;10.74;100.00
12897;BME280;6516;35.028;32.372;2023-01-19T03:05:32;100973.88;;;10.76;100.00
12897;BME280;6516;35.028;32.372;2023-01-19T03:08:11;100979.16;;;10.76;100.00
12897;BME280;6516;35.028;32.372;2023-01-19T03:10:48;100967.72;;;10.82;100.00
12897;BME280;6516;35.028;32.372;2023-01-19T03:13:26;100965.94;;;10.84;100.00
12897;BME280;6516;35.028;32.372;2023-01-19T03:16:02;100964.19;;;10.86;100.00
12897;BME280;6516;35.028;32.372;2023-01-19T03:18:33;100973.81;;;10.85;100.00
12897;BME280;6516;35.028;32.372;2023-01-19T03:21:05;100965.88;;;10.91;100.00
12897;BME280;6516;35.028;32.372;2023-01-19T03:23:35;100968.50;;;10.94;100.00
12897;BME280;6516;35.028;32.372;2023-01-19T03:26:10;100973.75;;;10.98;100.00
12897;BME280;6516;35.028;32.372;2023-01-19T03:28:44;100971.97;;;10.99;100.00
12897;BME280;6516;35.028;32.372;2023-01-19T03:31:15;100964.97;;;10.98;100.00
12897;BME280;6516;35.028;32.372;2023-01-19T03:33:48;100969.34;;;10.98;100.00
12897;BME280;6516;35.028;32.372;2023-01-19T03:36:20;100979.88;;;10.98;100.00
12897;BME280;6516;35.028;32.372;2023-01-19T03:38:52;100973.81;;;10.88;100.00
12897;BME280;6516;35.028;32.372;2023-01-19T03:41:24;100972.09;;;10.81;100.00
12897;BME280;6516;35.028;32.372;2023-01-19T03:43:54;100972.97;;;10.82;100.00
12897;BME280;6516;35.028;32.372;2023-01-19T03:46:23;100972.09;;;10.84;100.00
12897;BME280;6516;35.028;32.372;2023-01-19T03:48:53;100972.09;;;10.84;100.00
12897;BME280;6516;35.028;32.372;2023-01-19T03:51:21;100983.50;;;10.80;100.00
12897;BME280;6516;35.028;32.372;2023-01-19T03:53:49;100977.34;;;10.81;100.00
12897;BME280;6516;35.028;32.372;2023-01-19T03:56:18;100991.41;;;10.76;100.00
12897;BME280;6516;35.028;32.372;2023-01-19T03:58:48;100983.53;;;10.76;100.00
12897;BME280;6516;35.028;32.372;2023-01-19T04:01:17;100986.19;;;10.68;100.00
12897;BME280;6516;35.028;32.372;2023-01-19T04:03:47;100981.81;;;10.70;100.00
12897;BME280;6516;35.028;32.372;2023-01-19T04:06:15;100984.44;;;10.70;100.00
12897;BME280;6516;35.028;32.372;2023-01-19T04:08:44;100986.19;;;10.70;100.00
12897;BME280;6516;35.028;32.372;2023-01-19T04:11:13;100986.25;;;10.65;100.00
12897;BME280;6516;35.028;32.372;2023-01-19T04:13:41;100989.72;;;10.63;100.00
12897;BME280;6516;35.028;32.372;2023-01-19T04:16:11;100990.63;;;10.66;100.00
12897;BME280;6516;35.028;32.372;2023-01-19T04:18:39;100990.56;;;10.71;100.00
12897;BME280;6516;35.028;32.372;2023-01-19T04:21:08;100984.47;;;10.66;100.00
12897;BME280;6516;35.028;32.372;2023-01-19T04:23:36;100984.47;;;10.66;100.00
12897;BME280;6516;35.028;32.372;2023-01-19T04:26:06;100988.81;;;10.74;100.00
12897;BME280;6516;35.028;32.372;2023-01-19T04:28:35;100984.31;;;10.90;100.00
12897;BME280;6516;35.028;32.372;2023-01-19T04:31:03;100991.31;;;10.95;100.00
12897;BME280;6516;35.028;32.372;2023-01-19T04:33:33;100987.78;;;10.99;100.00
12897;BME280;6516;35.028;32.372;2023-01-19T04:36:01;100993.91;;;11.06;100.00
12897;BME280;6516;35.028;32.372;2023-01-19T04:38:30;100991.25;;;11.09;100.00
12897;BME280;6516;35.028;32.372;2023-01-19T04:40:57;100991.22;;;11.13;100.00
12897;BME280;6516;35.028;32.372;2023-01-19T04:43:25;100996.47;;;11.18;100.00
12897;BME280;6516;35.028;32.372;2023-01-19T04:45:53;100996.44;;;11.19;100.00
12897;BME280;6516;35.028;32.372;2023-01-19T04:48:21;100999.09;;;11.13;100.00
12897;BME280;6516;35.028;32.372;2023-01-19T04:50:51;100994.84;;;10.96;100.00
12897;BME280;6516;35.028;32.372;2023-01-19T04:53:19;100998.34;;;10.96;100.00
12897;BME280;6516;35.028;32.372;2023-01-19T04:55:46;101000.06;;;11.00;100.00
12897;BME280;6516;35.028;32.372;2023-01-19T04:58:18;101001.81;;;11.01;100.00
12897;BME280;6516;35.028;32.372;2023-01-19T05:00:45;101004.44;;;11.06;100.00
12897;BME280;6516;35.028;32.372;2023-01-19T05:03:13;101007.97;;;10.99;100.00
12897;BME280;6516;35.028;32.372;2023-01-19T05:05:41;101008.00;;;10.98;100.00
12897;BME280;6516;35.028;32.372;2023-01-19T05:08:10;101003.59;;;11.01;100.00
12897;BME280;6516;35.028;32.372;2023-01-19T05:10:38;101004.44;;;11.01;100.00
12897;BME280;6516;35.028;32.372;2023-01-19T05:13:06;101009.69;;;11.07;100.00
12897;BME280;6516;35.028;32.372;2023-01-19T05:15:34;101010.59;;;11.02;100.00
12897;BME280;6516;35.028;32.372;2023-01-19T05:18:01;101010.59;;;11.05;100.00
12897;BME280;6516;35.028;32.372;2023-01-19T05:20:29;101007.91;;;11.09;100.00
12897;BME280;6516;35.028;32.372;2023-01-19T05:22:57;101002.63;;;11.16;100.00
12897;BME280;6516;35.028;32.372;2023-01-19T05:25:26;101001.69;;;11.19;100.00
12897;BME280;6516;35.028;32.372;2023-01-19T05:27:54;101011.38;;;11.22;100.00
12897;BME280;6516;35.028;32.372;2023-01-19T05:30:21;101014.00;;;11.21;100.00
12897;BME280;6516;35.028;32.372;2023-01-19T05:32:49;101013.97;;;11.23;100.00
12897;BME280;6516;35.028;32.372;2023-01-19T05:35:17;101015.75;;;11.25;100.00
12897;BME280;6516;35.028;32.372;2023-01-19T05:37:45;101019.22;;;11.30;100.00
12897;BME280;6516;35.028;32.372;2023-01-19T05:40:13;101010.41;;;11.34;100.00
12897;BME280;6516;35.028;32.372;2023-01-19T05:42:42;101012.09;;;11.44;100.00
12897;BME280;6516;35.028;32.372;2023-01-19T05:45:10;101010.28;;;11.50;100.00
12897;BME280;6516;35.028;32.372;2023-01-19T05:47:38;101008.47;;;11.60;100.00
12897;BME280;6516;35.028;32.372;2023-01-19T05:50:06;101013.66;;;11.72;100.00
12897;BME280;6516;35.028;32.372;2023-01-19T05:52:34;101011.81;;;11.80;100.00
12897;BME280;6516;35.028;32.372;2023-01-19T05:55:02;101020.47;;;11.95;100.00
12897;BME280;6516;35.028;32.372;2023-01-19T05:57:30;101016.84;;;12.07;100.00
12897;BME280;6516;35.028;32.372;2023-01-19T05:59:59;101027.25;;;12.19;100.00
12897;BME280;6516;35.028;32.372;2023-01-19T06:02:27;101023.66;;;12.27;100.00
12897;BME280;6516;35.028;32.372;2023-01-19T06:04:55;101017.38;;;12.37;100.00
12897;BME280;6516;35.028;32.372;2023-01-19T06:07:23;101030.38;;;12.54;100.00
12897;BME280;6516;35.028;32.372;2023-01-19T06:09:51;101030.16;;;12.72;100.00
12897;BME280;6516;35.028;32.372;2023-01-19T06:12:19;101027.31;;;12.87;100.00
12897;BME280;6516;35.028;32.372;2023-01-19T06:14:47;101032.47;;;13.00;100.00
12897;BME280;6516;35.028;32.372;2023-01-19T06:17:16;101037.50;;;13.20;100.00
12897;BME280;6516;35.028;32.372;2023-01-19T06:19:44;101037.13;;;13.44;100.00
12897;BME280;6516;35.028;32.372;2023-01-19T06:22:12;101033.94;;;13.77;99.92
12897;BME280;6516;35.028;32.372;2023-01-19T06:24:39;101033.59;;;13.96;95.33
12897;BME280;6516;35.028;32.372;2023-01-19T06:27:07;101040.25;;;14.20;94.88
12897;BME280;6516;35.028;32.372;2023-01-19T06:29:35;101041.63;;;14.42;94.64
12897;BME280;6516;35.028;32.372;2023-01-19T06:32:04;101040.25;;;14.65;93.07
12897;BME280;6516;35.028;32.372;2023-01-19T06:34:33;101029.94;;;14.94;94.03
12897;BME280;6516;35.028;32.372;2023-01-19T06:37:01;101033.00;;;15.16;91.28
12897;BME280;6516;35.028;32.372;2023-01-19T06:39:29;101033.41;;;15.37;85.52
12897;BME280;6516;35.028;32.372;2023-01-19T06:41:57;101030.13;;;15.63;84.83
12897;BME280;6516;35.028;32.372;2023-01-19T06:44:25;101030.34;;;15.90;86.31
12897;BME280;6516;35.028;32.372;2023-01-19T06:46:53;101023.50;;;16.14;85.53
12897;BME280;6516;35.028;32.372;2023-01-19T06:49:20;101030.16;;;16.30;76.77
12897;BME280;6516;35.028;32.372;2023-01-19T06:51:50;101024.06;;;16.58;76.64
12897;BME280;6516;35.028;32.372;2023-01-19T06:54:17;101027.00;;;16.80;73.57
12897;BME280;6516;35.028;32.372;2023-01-19T06:56:46;101029.09;;;16.98;70.13
12897;BME280;6516;35.028;32.372;2023-01-19T06:59:14;101032.72;;;17.24;71.53
12897;BME280;6516;35.028;32.372;2023-01-19T07:01:42;101030.44;;;17.41;66.01
12897;BME280;6516;35.028;32.372;2023-01-19T07:04:09;101027.88;;;17.66;67.24
12897;BME280;6516;35.028;32.372;2023-01-19T07:06:38;101019.22;;;17.85;65.99
12897;BME280;6516;35.028;32.372;2023-01-19T07:09:08;101026.75;;;18.23;65.78
12897;BME280;6516;35.028;32.372;2023-01-19T07:11:38;101015.06;;;18.53;59.99
12897;BME280;6516;35.028;32.372;2023-01-19T07:14:06;101022.34;;;18.73;57.89
12897;BME280;6516;35.028;32.372;2023-01-19T07:16:33;101022.72;;;19.08;56.52
12897;BME280;6516;35.028;32.372;2023-01-19T07:19:01;101027.91;;;19.36;56.09
12897;BME280;6516;35.028;32.372;2023-01-19T07:21:29;101020.63;;;19.61;55.43
12897;BME280;6516;35.028;32.372;2023-01-19T07:23:57;101020.25;;;19.70;53.85
12897;BME280;6516;35.028;32.372;2023-01-19T07:26:26;101024.56;;;19.74;53.30
12897;BME280;6516;35.028;32.372;2023-01-19T07:28:55;101017.63;;;19.90;53.54
12897;BME280;6516;35.028;32.372;2023-01-19T07:31:23;101018.72;;;20.06;53.93
12897;BME280;6516;35.028;32.372;2023-01-19T07:33:50;101012.75;;;20.21;53.15
12897;BME280;6516;35.028;32.372;2023-01-19T07:36:18;101016.69;;;20.33;52.67
12897;BME280;6516;35.028;32.372;2023-01-19T07:38:46;101018.91;;;20.43;51.92
12897;BME280;6516;35.028;32.372;2023-01-19T07:41:14;101016.13;;;20.65;50.22
12897;BME280;6516;35.028;32.372;2023-01-19T07:43:43;101018.19;;;20.78;49.97
12897;BME280;6516;35.028;32.372;2023-01-19T07:46:11;101019.84;;;21.01;48.86
12897;BME280;6516;35.028;32.372;2023-01-19T07:48:39;101012.13;;;21.13;48.36
12897;BME280;6516;35.028;32.372;2023-01-19T07:51:09;101021.72;;;20.99;47.91
12897;BME280;6516;35.028;32.372;2023-01-19T07:53:42;101013.69;;;20.99;50.61
12897;BME280;6516;35.028;32.372;2023-01-19T07:56:10;101016.47;;;21.16;50.96
12897;BME280;6516;35.028;32.372;2023-01-19T07:58:38;101019.28;;;21.13;48.72
12897;BME280;6516;35.028;32.372;2023-01-19T08:01:09;101012.97;;;21.14;47.39
12897;BME280;6516;35.028;32.372;2023-01-19T08:03:38;101007.19;;;21.41;46.34
12897;BME280;6516;35.028;32.372;2023-01-19T08:06:06;101004.56;;;21.21;45.52
12897;BME280;6516;35.028;32.372;2023-01-19T08:08:37;101000.66;;;21.47;45.90
12897;BME280;6516;35.028;32.372;2023-01-19T08:11:04;101009.47;;;21.30;46.04
12897;BME280;6516;35.028;32.372;2023-01-19T08:13:33;101003.09;;;21.33;45.27
12897;BME280;6516;35.028;32.372;2023-01-19T08:16:00;101001.19;;;21.53;45.65
12897;BME280;6516;35.028;32.372;2023-01-19T08:18:31;100998.88;;;21.64;46.75
12897;BME280;6516;35.028;32.372;2023-01-19T08:20:58;100998.06;;;21.62;47.24
12897;BME280;6516;35.028;32.372;2023-01-19T08:23:26;100995.19;;;21.67;46.30
12897;BME280;6516;35.028;32.372;2023-01-19T08:25:54;100994.81;;;21.74;46.94
12897;BME280;6516;35.028;32.372;2023-01-19T08:28:22;100983.63;;;21.83;45.78
12897;BME280;6516;35.028;32.372;2023-01-19T08:30:50;100983.31;;;21.54;44.61
12897;BME280;6516;35.028;32.372;2023-01-19T08:33:20;100981.56;;;21.71;44.61
12897;BME280;6516;35.028;32.372;2023-01-19T08:35:51;100986.16;;;21.69;47.89
12897;BME280;6516;35.028;32.372;2023-01-19T08:38:19;100974.00;;;21.79;48.42
12897;BME280;6516;35.028;32.372;2023-01-19T08:40:47;100978.28;;;21.83;49.00
12897;BME280;6516;35.028;32.372;2023-01-19T08:43:16;100973.78;;;21.84;49.97
12897;BME280;6516;35.028;32.372;2023-01-19T08:45:48;100971.03;;;21.85;49.57
12897;BME280;6516;35.028;32.372;2023-01-19T08:48:19;100965.81;;;21.82;51.00
12897;BME280;6516;35.028;32.372;2023-01-19T08:50:50;100969.06;;;21.89;51.38
12897;BME280;6516;35.028;32.372;2023-01-19T08:53:18;100961.56;;;21.95;51.83
12897;BME280;6516;35.028;32.372;2023-01-19T08:55:48;100964.19;;;21.97;51.25
12897;BME280;6516;35.028;32.372;2023-01-19T08:58:16;100963.13;;;22.16;51.68
12897;BME280;6516;35.028;32.372;2023-01-19T09:00:44;100949.00;;;22.30;51.78
12897;BME280;6516;35.028;32.372;2023-01-19T09:03:12;100953.00;;;22.21;52.09
12897;BME280;6516;35.028;32.372;2023-01-19T09:05:40;100953.25;;;22.34;52.14
12897;BME280;6516;35.028;32.372;2023-01-19T09:08:11;100945.22;;;22.34;52.27
12897;BME280;6516;35.028;32.372;2023-01-19T09:10:44;100939.75;;;22.35;51.71
12897;BME280;6516;35.028;32.372;2023-01-19T09:13:13;100938.47;;;22.42;52.36
12897;BME280;6516;35.028;32.372;2023-01-19T09:15:42;100935.31;;;22.51;51.89
12897;BME280;6516;35.028;32.372;2023-01-19T09:18:11;100929.25;;;22.48;52.54
12897;BME280;6516;35.028;32.372;2023-01-19T09:20:39;100929.47;;;22.60;52.50
12897;BME280;6516;35.028;32.372;2023-01-19T09:23:10;100929.22;;;22.65;52.26
12897;BME280;6516;35.028;32.372;2023-01-19T09:25:39;100928.59;;;22.75;50.84
12897;BME280;6516;35.028;32.372;2023-01-19T09:28:11;100920.03;;;22.84;49.87
12897;BME280;6516;35.028;32.372;2023-01-19T09:30:41;100920.75;;;22.72;50.38
12897;BME280;6516;35.028;32.372;2023-01-19T09:33:10;100911.50;;;22.45;50.49
12897;BME280;6516;35.028;32.372;2023-01-19T09:35:40;100910.75;;;22.42;52.08
12897;BME280;6516;35.028;32.372;2023-01-19T09:38:10;100902.59;;;22.28;51.96
12897;BME280;6516;35.028;32.372;2023-01-19T09:40:41;100899.53;;;22.18;52.74
12897;BME280;6516;35.028;32.372;2023-01-19T09:43:13;100901.84;;;22.09;52.92
12897;BME280;6516;35.028;32.372;2023-01-19T09:45:48;100887.25;;;22.14;53.95
12897;BME280;6516;35.028;32.372;2023-01-19T09:48:29;100888.94;;;22.32;53.78
12897;BME280;6516;35.028;32.372;2023-01-19T09:51:04;100875.59;;;22.48;52.28
12897;BME280;6516;35.028;32.372;2023-01-19T09:53:50;100872.84;;;22.65;52.14
12897;BME280;6516;35.028;32.372;2023-01-19T09:56:22;100867.91;;;22.88;52.65
12897;BME280;6516;35.028;32.372;2023-01-19T09:58:50;100863.13;;;22.78;51.66
12897;BME280;6516;35.028;32.372;2023-01-19T10:01:36;100864.44;;;22.71;52.83
12897;BME280;6516;35.028;32.372;2023-01-19T10:04:25;100861.59;;;22.74;52.64
12897;BME280;6516;35.028;32.372;2023-01-19T10:07:05;100858.63;;;22.78;51.88
12897;BME280;6516;35.028;32.372;2023-01-19T10:09:50;100851.63;;;22.76;53.07
12897;BME280;6516;35.028;32.372;2023-01-19T10:12:46;100849.00;;;22.74;52.60
12897;BME280;6516;35.028;32.372;2023-01-19T10:15:33;100854.81;;;22.67;53.12
12897;BME280;6516;35.028;32.372;2023-01-19T10:18:16;100848.16;;;22.58;54.04
12897;BME280;6516;35.028;32.372;2023-01-19T10:20:49;100840.34;;;22.69;53.54
12897;BME280;6516;35.028;32.372;2023-01-19T10:23:28;100845.56;;;22.72;53.25
12897;BME280;6516;35.028;32.372;2023-01-19T10:26:08;100847.53;;;22.84;54.03
12897;BME280;6516;35.028;32.372;2023-01-19T10:28:39;100840.34;;;22.85;53.04
12897;BME280;6516;35.028;32.372;2023-01-19T10:31:07;100837.66;;;22.54;51.01
12897;BME280;6516;35.028;32.372;2023-01-19T10:33:35;100826.75;;;22.57;51.15
12897;BME280;6516;35.028;32.372;2023-01-19T10:36:09;100829.38;;;22.58;53.19
12897;BME280;6516;35.028;32.372;2023-01-19T10:38:44;100823.81;;;22.61;50.24
12897;BME280;6516;35.028;32.372;2023-01-19T10:41:19;100823.34;;;22.84;47.88
12897;BME280;6516;35.028;32.372;2023-01-19T10:43:58;100823.47;;;22.67;51.34
12897;BME280;6516;35.028;32.372;2023-01-19T10:46:34;100823.28;;;22.55;51.49
12897;BME280;6516;35.028;32.372;2023-01-19T10:49:05;100820.88;;;22.50;52.77
12897;BME280;6516;35.028;32.372;2023-01-19T10:51:33;100814.66;;;22.33;51.65
12897;BME280;6516;35.028;32.372;2023-01-19T10:54:12;100818.56;;;22.27;52.98
12897;BME280;6516;35.028;32.372;2023-01-19T10:56:42;100819.94;;;22.34;52.78
12897;BME280;6516;35.028;32.372;2023-01-19T10:59:33;100805.91;;;22.29;54.42
12897;BME280;6516;35.028;32.372;2023-01-19T11:02:15;100805.59;;;22.51;53.95
12897;BME280;6516;35.028;32.372;2023-01-19T11:04:45;100803.13;;;22.48;53.87
12897;BME280;6516;35.028;32.372;2023-01-19T11:07:17;100803.03;;;22.65;52.88
12897;BME280;6516;35.028;32.372;2023-01-19T11:09:47;100801.66;;;22.58;52.91
12897;BME280;6516;35.028;32.372;2023-01-19T11:12:18;100803.81;;;22.51;53.74
12897;BME280;6516;35.028;32.372;2023-01-19T11:14:48;100805.47;;;22.37;53.37
12897;BME280;6516;35.028;32.372;2023-01-19T11:17:19;100800.63;;;22.28;53.76
12897;BME280;6516;35.028;32.372;2023-01-19T11:19:56;100810.44;;;22.29;53.70
12897;BME280;6516;35.028;32.372;2023-01-19T11:22:27;100804.19;;;22.28;55.03
12897;BME280;6516;35.028;32.372;2023-01-19T11:24:59;100800.47;;;22.31;55.44
12897;BME280;6516;35.028;32.372;2023-01-19T11:27:31;100803.38;;;22.11;55.06
12897;BME280;6516;35.028;32.372;2023-01-19T11:30:05;100793.59;;;22.25;54.90
12897;BME280;6516;35.028;32.372;2023-01-19T11:32:35;100789.56;;;22.18;55.38
12897;BME280;6516;35.028;32.372;2023-01-19T11:35:27;100792.53;;;22.12;56.13
12897;BME280;6516;35.028;32.372;2023-01-19T11:38:15;100790.97;;;21.93;56.15
12897;BME280;6516;35.028;32.372;2023-01-19T11:40:50;100780.44;;;22.05;56.87
12897;BME280;6516;35.028;32.372;2023-01-19T11:43:25;100792.63;;;21.95;56.74
12897;BME280;6516;35.028;32.372;2023-01-19T11:45:55;100791.25;;;22.04;55.83
12897;BME280;6516;35.028;32.372;2023-01-19T11:48:27;100787.00;;;22.00;56.60
12897;BME280;6516;35.028;32.372;2023-01-19T11:50:59;100784.38;;;21.98;56.47
12897;BME280;6516;35.028;32.372;2023-01-19T11:53:32;100787.06;;;21.98;57.37
12897;BME280;6516;35.028;32.372;2023-01-19T11:56:02;100774.31;;;22.34;55.52
12897;BME280;6516;35.028;32.372;2023-01-19T11:58:36;100782.09;;;22.23;56.41
12897;BME280;6516;35.028;32.372;2023-01-19T12:01:09;100787.88;;;22.00;56.28
12897;BME280;6516;35.028;32.372;2023-01-19T12:03:45;100782.88;;;21.77;56.97
12897;BME280;6516;35.028;32.372;2023-01-19T12:06:19;100776.72;;;21.75;58.00
12897;BME280;6516;35.028;32.372;2023-01-19T12:08:53;100773.66;;;21.49;58.97
12897;BME280;6516;35.028;32.372;2023-01-19T12:11:26;100773.44;;;21.19;58.81
12897;BME280;6516;35.028;32.372;2023-01-19T12:14:00;100777.53;;;21.09;59.83
12897;BME280;6516;35.028;32.372;2023-01-19T12:16:29;100777.81;;;21.03;60.41
12897;BME280;6516;35.028;32.372;2023-01-19T12:19:00;100779.50;;;20.87;60.83
12897;BME280;6516;35.028;32.372;2023-01-19T12:21:30;100782.13;;;20.89;61.43
12897;BME280;6516;35.028;32.372;2023-01-19T12:24:06;100772.78;;;20.97;61.62
12897;BME280;6516;35.028;32.372;2023-01-19T12:26:45;100771.41;;;20.89;60.00
12897;BME280;6516;35.028;32.372;2023-01-19T12:29:20;100770.66;;;20.85;60.03
12897;BME280;6516;35.028;32.372;2023-01-19T12:32:18;100778.25;;;20.77;61.13
12897;BME280;6516;35.028;32.372;2023-01-19T12:34:55;100772.72;;;20.80;61.15
12897;BME280;6516;35.028;32.372;2023-01-19T12:37:37;100771.47;;;20.87;60.54
12897;BME280;6516;35.028;32.372;2023-01-19T12:40:22;100776.19;;;20.82;60.86
12897;BME280;6516;35.028;32.372;2023-01-19T12:42:57;100776.34;;;20.79;60.76
12897;BME280;6516;35.028;32.372;2023-01-19T12:45:32;100776.78;;;20.89;61.60
12897;BME280;6516;35.028;32.372;2023-01-19T12:48:04;100778.47;;;20.91;61.53
12897;BME280;6516;35.028;32.372;2023-01-19T12:50:38;100769.22;;;20.97;61.25
12897;BME280;6516;35.028;32.372;2023-01-19T12:53:15;100765.63;;;20.98;61.01
12897;BME280;6516;35.028;32.372;2023-01-19T12:55:57;100770.19;;;20.96;61.77
12897;BME280;6516;35.028;32.372;2023-01-19T12:58:26;100771.47;;;20.87;61.44
12897;BME280;6516;35.028;32.372;2023-01-19T13:01:13;100770.03;;;20.80;60.00
12897;BME280;6516;35.028;32.372;2023-01-19T13:04:01;100771.31;;;20.73;60.76
12897;BME280;6516;35.028;32.372;2023-01-19T13:07:05;100766.06;;;20.35;62.21